createdAt,value
2018-02-17T00:00:17.636Z,52.57
2018-02-17T00:02:45.856Z,43.20
2018-02-17T00:05:14.895Z,51.30
2018-02-17T00:07:43.406Z,44.93
2018-02-17T00:10:12.426Z,35.80
2018-02-17T00:12:41.469Z,40.70
2018-02-17T00:15:10.449Z,42.83
2018-02-17T00:17:38.709Z,47.27
2018-02-17T00:20:07.725Z,46.20
2018-02-17T00:22:35.962Z,36.77
2018-02-17T00:25:05.002Z,43.57
2018-02-17T00:27:33.389Z,35.27
2018-02-17T00:30:01.581Z,38.37
2018-02-17T00:32:29.786Z,43.47
2018-02-17T00:34:58.084Z,37.03
2018-02-17T00:37:27.070Z,36.23
2018-02-17T00:39:56.090Z,33.93
2018-02-17T00:42:25.081Z,32.93
2018-02-17T00:44:53.417Z,38.87
2018-02-17T00:47:21.783Z,29.80
2018-02-17T00:49:50.053Z,34.30
2018-02-17T00:52:18.276Z,37.43
2018-02-17T00:54:47.297Z,37.60
2018-02-17T00:57:15.602Z,30.97
2018-02-17T00:59:43.922Z,42.17
2018-02-17T01:02:12.917Z,37.87
2018-02-17T01:04:42.036Z,38.53
2018-02-17T01:07:11.030Z,58.70
2018-02-17T01:09:40.013Z,47.27
2018-02-17T01:12:09.025Z,48.30
2018-02-17T01:14:37.232Z,47.10
2018-02-17T01:17:05.474Z,40.83
2018-02-17T01:19:33.953Z,47.37
2018-02-17T01:22:02.156Z,55.80
2018-02-17T01:24:30.390Z,42.23
2018-02-17T01:27:01.863Z,31.20
2018-02-17T01:29:30.848Z,45.87
2018-02-17T01:31:59.817Z,52.03
2018-02-17T01:34:28.059Z,76.20
2018-02-17T01:36:56.257Z,51.73
2018-02-17T01:39:24.456Z,45.07
2018-02-17T01:41:53.485Z,45.67
2018-02-17T01:44:21.704Z,32.83
2018-02-17T01:46:49.901Z,41.57
2018-02-17T01:49:18.909Z,41.10
2018-02-17T01:51:47.868Z,47.03
2018-02-17T01:54:16.120Z,42.37
2018-02-17T01:56:44.349Z,44.27
2018-02-17T01:59:13.341Z,83.33
2018-02-17T02:01:42.318Z,47.70
2018-02-17T02:04:10.552Z,55.03
2018-02-17T02:06:38.772Z,54.40
2018-02-17T02:09:07.763Z,60.77
2018-02-17T02:11:36.039Z,63.60
2018-02-17T02:14:04.240Z,65.27
2018-02-17T02:16:32.523Z,76.90
2018-02-17T02:19:00.844Z,145.47
2018-02-17T02:21:29.156Z,75.10
2018-02-17T02:23:58.153Z,63.33
2018-02-17T02:26:27.208Z,91.57
2018-02-17T02:28:55.637Z,66.77
2018-02-17T02:31:24.603Z,58.27
2018-02-17T02:33:52.881Z,66.50
2018-02-17T02:36:21.062Z,72.70
2018-02-17T02:38:50.058Z,114.63
2018-02-17T02:41:19.123Z,94.13
2018-02-17T02:43:47.448Z,78.23
2018-02-17T02:46:16.412Z,72.33
2018-02-17T02:48:45.500Z,91.57
2018-02-17T02:51:13.762Z,71.77
2018-02-17T02:53:41.977Z,90.27
2018-02-17T02:56:10.982Z,92.37
2018-02-17T02:58:39.237Z,81.80
2018-02-17T03:01:07.421Z,95.17
2018-02-17T03:03:36.427Z,86.27
2018-02-17T03:06:05.421Z,81.40
2018-02-17T03:08:34.381Z,96.40
2018-02-17T03:11:02.760Z,80.90
2018-02-17T03:13:31.312Z,76.73
2018-02-17T03:15:59.618Z,72.07
2018-02-17T03:18:27.904Z,59.30
2018-02-17T03:20:56.084Z,63.60
2018-02-17T03:23:25.091Z,58.93
2018-02-17T03:25:54.270Z,76.20
2018-02-17T03:28:22.539Z,46.10
2018-02-17T03:30:52.015Z,50.70
2018-02-17T03:33:20.397Z,59.10
2018-02-17T03:35:48.638Z,77.90
2018-02-17T03:38:17.608Z,77.10
2018-02-17T03:40:45.879Z,56.17
2018-02-17T03:43:14.125Z,85.50
2018-02-17T03:45:42.329Z,51.17
2018-02-17T03:48:10.553Z,75.07
2018-02-17T03:50:38.774Z,56.17
2018-02-17T03:53:07.001Z,80.90
2018-02-17T03:55:35.353Z,64.53
2018-02-17T03:58:03.568Z,45.47
2018-02-17T04:00:32.703Z,48.30
2018-02-17T04:03:01.024Z,80.97
2018-02-17T04:05:29.269Z,74.67
2018-02-17T04:07:58.242Z,60.27
2018-02-17T04:10:26.542Z,65.00
2018-02-17T04:12:54.757Z,66.33
2018-02-17T04:15:22.953Z,48.40
2018-02-17T04:17:51.185Z,55.00
2018-02-17T04:20:19.409Z,46.03
2018-02-17T04:22:47.601Z,51.57
2018-02-17T04:25:16.588Z,44.90
2018-02-17T04:27:45.577Z,38.07
2018-02-17T04:30:13.776Z,38.07
2018-02-17T04:32:42.002Z,38.27
2018-02-17T04:35:10.306Z,40.80
2018-02-17T04:37:38.515Z,58.03
2018-02-17T04:43:11.543Z,47.40
2018-02-17T04:45:40.648Z,58.97
2018-02-17T04:48:11.473Z,57.03
2018-02-17T04:50:39.678Z,42.83
2018-02-17T04:53:13.588Z,58.10
2018-02-17T04:55:57.635Z,50.87
2018-02-17T04:58:42.565Z,48.40
2018-02-17T05:01:11.558Z,57.63
2018-02-17T05:03:49.899Z,50.20
2018-02-17T05:06:20.532Z,52.77
2018-02-17T05:08:51.585Z,46.57
2018-02-17T05:11:19.780Z,52.57
2018-02-17T05:13:48.748Z,56.70
2018-02-17T05:16:30.892Z,58.50
2018-02-17T05:19:03.669Z,50.80
2018-02-17T05:21:32.358Z,53.93
2018-02-17T05:24:03.135Z,52.40
2018-02-17T05:26:33.018Z,66.30
2018-02-17T05:32:02.360Z,55.50
2018-02-17T05:34:34.189Z,47.77
2018-02-17T05:37:02.384Z,71.20
2018-02-17T05:39:43.308Z,60.57
2018-02-17T05:42:12.300Z,63.53
2018-02-17T05:44:45.240Z,63.43
2018-02-17T05:47:30.182Z,60.80
2018-02-17T05:50:04.610Z,48.70
2018-02-17T05:52:32.871Z,46.37
2018-02-17T05:55:01.153Z,48.77
2018-02-17T05:57:29.549Z,45.90
2018-02-17T05:59:57.794Z,48.27
2018-02-17T06:02:26.070Z,52.27
2018-02-17T06:04:54.341Z,42.93
2018-02-17T06:07:23.331Z,46.87
2018-02-17T06:09:52.448Z,64.00
2018-02-17T06:12:21.930Z,69.70
2018-02-17T06:14:50.900Z,54.00
2018-02-17T06:17:19.108Z,52.63
2018-02-17T06:19:47.421Z,47.73
2018-02-17T06:22:15.626Z,44.70
2018-02-17T06:24:43.897Z,73.27
2018-02-17T06:27:12.110Z,42.27
2018-02-17T06:29:40.391Z,58.00
2018-02-17T06:32:08.602Z,55.77
2018-02-17T06:34:36.868Z,44.77
2018-02-17T06:37:05.081Z,44.67
2018-02-17T06:39:33.281Z,52.60
2018-02-17T06:42:02.340Z,52.23
2018-02-17T06:44:30.589Z,49.87
2018-02-17T06:46:58.820Z,53.17
2018-02-17T06:49:28.024Z,48.17
2018-02-17T06:51:57.017Z,45.20
2018-02-17T06:54:25.997Z,41.43
2018-02-17T06:56:55.228Z,45.70
2018-02-17T06:59:23.441Z,39.47
2018-02-17T07:01:51.689Z,42.10
2018-02-17T07:04:20.077Z,35.93
2018-02-17T07:06:48.344Z,33.87
2018-02-17T07:09:16.572Z,25.53
2018-02-17T07:11:44.789Z,31.17
2018-02-17T07:14:12.994Z,28.23
2018-02-17T07:16:41.213Z,25.80
2018-02-17T07:19:09.500Z,22.10
2018-02-17T07:21:37.706Z,27.30
2018-02-17T07:24:06.292Z,26.53
2018-02-17T07:26:34.522Z,26.10
2018-02-17T07:29:03.524Z,28.00
2018-02-17T07:31:31.721Z,32.00
2018-02-17T07:33:59.960Z,29.57
2018-02-17T07:36:30.132Z,34.23
2018-02-17T07:38:58.340Z,27.17
2018-02-17T07:41:27.394Z,27.60
2018-02-17T07:43:55.633Z,33.07
2018-02-17T07:46:23.879Z,27.63
2018-02-17T07:48:52.127Z,32.70
2018-02-17T07:51:20.850Z,26.30
2018-02-17T07:53:49.100Z,27.13
2018-02-17T07:56:17.522Z,27.67
2018-02-17T07:58:45.813Z,28.40
2018-02-17T08:01:14.061Z,30.00
2018-02-17T08:03:43.142Z,27.43
2018-02-17T08:06:11.496Z,24.70
2018-02-17T08:08:39.697Z,32.33
2018-02-17T08:11:07.924Z,32.53
2018-02-17T08:13:36.125Z,26.30
2018-02-17T08:16:04.325Z,28.60
2018-02-17T08:18:32.576Z,28.00
2018-02-17T08:21:00.793Z,27.97
2018-02-17T08:23:29.870Z,28.77
2018-02-17T08:25:58.360Z,29.03
2018-02-17T08:28:27.341Z,30.90
2018-02-17T08:30:55.711Z,30.10
2018-02-17T08:33:24.069Z,31.00
2018-02-17T08:35:52.330Z,25.50
2018-02-17T08:38:22.916Z,26.93
2018-02-17T08:40:51.949Z,32.50
2018-02-17T08:43:20.967Z,35.17
2018-02-17T08:45:49.181Z,30.10
2018-02-17T08:48:18.415Z,28.97
2018-02-17T08:50:46.688Z,27.67
2018-02-17T08:53:14.905Z,30.50
2018-02-17T08:55:43.119Z,33.67
2018-02-17T08:58:12.080Z,35.97
2018-02-17T09:00:40.285Z,33.20
2018-02-17T09:03:09.284Z,31.23
2018-02-17T09:05:38.266Z,29.13
2018-02-17T09:08:07.246Z,27.30
2018-02-17T09:10:48.157Z,32.50
2018-02-17T09:13:16.532Z,35.33
2018-02-17T09:15:45.520Z,27.90
2018-02-17T09:18:13.773Z,33.17
2018-02-17T09:20:42.745Z,30.30
2018-02-17T09:23:10.953Z,26.40
2018-02-17T09:25:39.952Z,28.47
2018-02-17T09:28:08.221Z,27.90
2018-02-17T09:30:37.188Z,29.43
2018-02-17T09:33:05.544Z,26.33
2018-02-17T09:35:33.766Z,28.93
2018-02-17T09:38:02.842Z,29.80
2018-02-17T09:40:31.256Z,27.33
2018-02-17T09:42:59.467Z,25.17
2018-02-17T09:45:27.776Z,27.30
2018-02-17T09:47:56.066Z,28.10
2018-02-17T09:50:25.552Z,28.30
2018-02-17T09:52:53.774Z,32.93
2018-02-17T09:55:22.032Z,25.83
2018-02-17T09:57:50.997Z,27.10
2018-02-17T10:00:19.191Z,29.60
2018-02-17T10:02:48.177Z,28.30
2018-02-17T10:05:16.370Z,29.17
2018-02-17T10:07:44.565Z,26.87
2018-02-17T10:10:12.793Z,22.97
2018-02-17T10:12:41.140Z,23.80
2018-02-17T10:15:09.365Z,26.80
2018-02-17T10:17:38.961Z,26.43
2018-02-17T10:20:07.716Z,29.47
2018-02-17T10:22:35.924Z,28.97
2018-02-17T10:25:04.184Z,32.50
2018-02-17T10:27:32.385Z,32.40
2018-02-17T10:30:01.380Z,26.93
2018-02-17T10:32:30.477Z,33.90
2018-02-17T10:34:59.492Z,33.33
2018-02-17T10:37:27.794Z,35.43
2018-02-17T10:39:56.073Z,33.03
2018-02-17T10:42:25.544Z,37.77
2018-02-17T10:44:53.852Z,34.83
2018-02-17T10:47:22.865Z,30.70
2018-02-17T10:49:51.093Z,35.90
2018-02-17T10:52:19.297Z,38.37
2018-02-17T10:54:47.532Z,32.27
2018-02-17T10:57:15.817Z,30.90
2018-02-17T10:59:44.015Z,31.27
2018-02-17T11:02:12.424Z,32.97
2018-02-17T11:04:40.637Z,30.33
2018-02-17T11:07:08.920Z,32.87
2018-02-17T11:09:37.142Z,26.57
2018-02-17T11:12:05.919Z,34.43
2018-02-17T11:14:34.099Z,58.60
2018-02-17T11:17:02.313Z,38.03
2018-02-17T11:19:31.481Z,31.87
2018-02-17T11:21:59.675Z,28.40
2018-02-17T11:24:27.991Z,26.57
2018-02-17T11:26:56.182Z,30.20
2018-02-17T11:29:24.373Z,27.93
2018-02-17T11:31:52.645Z,29.50
2018-02-17T11:34:20.837Z,29.33
2018-02-17T11:36:49.195Z,33.30
2018-02-17T11:39:17.417Z,26.87
2018-02-17T11:41:46.377Z,27.37
2018-02-17T11:44:14.570Z,29.90
2018-02-17T11:46:42.842Z,31.30
2018-02-17T11:49:11.075Z,32.90
2018-02-17T11:51:39.285Z,32.03
2018-02-17T11:54:07.525Z,26.17
2018-02-17T11:56:35.772Z,32.70
2018-02-17T11:59:04.757Z,33.50
2018-02-17T12:01:33.869Z,32.80
2018-02-17T12:04:02.196Z,29.20
2018-02-17T12:06:30.389Z,31.70
2018-02-17T12:08:58.703Z,26.63
2018-02-17T12:11:26.972Z,32.83
2018-02-17T12:13:55.247Z,33.93
2018-02-17T12:16:23.476Z,35.03
2018-02-17T12:18:51.688Z,31.47
2018-02-17T12:21:20.742Z,32.37
2018-02-17T12:23:48.968Z,30.50
2018-02-17T12:26:17.929Z,34.53
2018-02-17T12:28:46.176Z,33.37
2018-02-17T12:31:14.393Z,31.60
2018-02-17T12:33:43.413Z,34.63
2018-02-17T12:36:11.601Z,33.33
2018-02-17T12:38:39.811Z,30.60
2018-02-17T12:41:08.057Z,35.07
2018-02-17T12:43:36.252Z,30.23
2018-02-17T12:46:04.521Z,35.50
2018-02-17T12:48:32.932Z,35.07
2018-02-17T12:51:01.125Z,33.93
2018-02-17T12:53:30.165Z,31.77
2018-02-17T12:55:58.364Z,32.77
2018-02-17T12:58:26.553Z,31.93
2018-02-17T13:00:55.669Z,33.37
2018-02-17T13:03:24.759Z,32.93
2018-02-17T13:05:53.717Z,34.83
2018-02-17T13:08:21.942Z,31.90
2018-02-17T13:10:50.153Z,29.20
2018-02-17T13:13:18.391Z,28.30
2018-02-17T13:15:46.657Z,32.63
2018-02-17T13:18:15.609Z,27.73
2018-02-17T13:20:43.874Z,28.37
2018-02-17T13:23:12.913Z,25.93
2018-02-17T13:25:41.912Z,27.07
2018-02-17T13:28:16.750Z,23.30
2018-02-17T13:30:44.993Z,30.90
2018-02-17T13:33:13.259Z,24.93
2018-02-17T13:35:42.841Z,29.47
2018-02-17T13:38:11.079Z,26.17
2018-02-17T13:40:39.293Z,30.20
2018-02-17T13:43:07.533Z,32.33
2018-02-17T13:45:35.732Z,25.83
2018-02-17T13:48:03.922Z,29.07
2018-02-17T13:50:32.161Z,33.40
2018-02-17T13:53:00.354Z,29.93
2018-02-17T13:55:28.632Z,30.07
2018-02-17T13:57:56.897Z,25.03
2018-02-17T14:00:25.273Z,29.33
2018-02-17T14:02:54.297Z,27.57
2018-02-17T14:05:22.510Z,34.27
2018-02-17T14:07:50.761Z,33.23
2018-02-17T14:10:18.985Z,27.47
2018-02-17T14:12:47.680Z,29.83
2018-02-17T14:15:15.886Z,27.50
2018-02-17T14:17:44.134Z,27.83
2018-02-17T14:20:13.392Z,28.50
2018-02-17T14:22:41.582Z,31.80
2018-02-17T14:25:09.827Z,30.13
2018-02-17T14:27:38.069Z,30.20
2018-02-17T14:30:07.005Z,30.13
2018-02-17T14:32:35.232Z,28.40
2018-02-17T14:35:04.326Z,30.70
2018-02-17T14:37:32.638Z,25.77
2018-02-17T14:40:00.841Z,26.80
2018-02-17T14:42:29.160Z,22.30
2018-02-17T14:44:57.412Z,27.97
2018-02-17T14:47:26.402Z,23.57
2018-02-17T14:49:55.376Z,25.83
2018-02-17T14:52:23.578Z,24.93
2018-02-17T14:54:52.583Z,30.60
2018-02-17T14:57:20.860Z,25.33
2018-02-17T14:59:49.087Z,28.00
2018-02-17T15:02:18.079Z,25.67
2018-02-17T15:04:46.504Z,27.23
2018-02-17T15:07:14.712Z,30.47
2018-02-17T15:09:43.030Z,22.50
2018-02-17T15:12:11.264Z,30.10
2018-02-17T15:14:39.488Z,35.27
2018-02-17T15:17:08.443Z,24.53
2018-02-17T15:19:36.654Z,24.53
2018-02-17T15:22:05.727Z,29.97
2018-02-17T15:24:34.122Z,24.83
2018-02-17T15:27:02.394Z,29.67
2018-02-17T15:29:30.693Z,24.23
2018-02-17T15:32:01.693Z,27.47
2018-02-17T15:34:30.537Z,26.63
2018-02-17T15:36:58.733Z,27.43
2018-02-17T15:39:26.964Z,27.30
2018-02-17T15:41:56.089Z,27.60
2018-02-17T15:44:24.941Z,28.97
2018-02-17T15:46:54.041Z,25.17
2018-02-17T15:49:22.301Z,29.13
2018-02-17T15:51:50.517Z,27.67
2018-02-17T15:54:18.737Z,25.77
2018-02-17T15:56:47.197Z,28.27
2018-02-17T15:59:15.529Z,32.13
2018-02-17T16:01:43.729Z,35.03
2018-02-17T16:04:12.805Z,29.90
2018-02-17T16:06:41.813Z,29.70
2018-02-17T16:09:10.089Z,33.80
2018-02-17T16:11:38.610Z,36.57
2018-02-17T16:14:06.829Z,29.23
2018-02-17T16:16:35.925Z,35.77
2018-02-17T16:19:05.363Z,32.27
2018-02-17T16:21:33.978Z,32.93
2018-02-17T16:24:02.347Z,39.13
2018-02-17T16:26:30.609Z,33.67
2018-02-17T16:28:58.913Z,30.70
2018-02-17T16:31:27.164Z,34.80
2018-02-17T16:33:55.724Z,31.60
2018-02-17T16:36:23.935Z,30.77
2018-02-17T16:38:52.148Z,32.83
2018-02-17T16:41:21.122Z,35.90
2018-02-17T16:43:49.418Z,31.00
2018-02-17T16:46:17.638Z,37.70
2018-02-17T16:48:45.874Z,31.33
2018-02-17T16:51:14.859Z,33.00
2018-02-17T16:53:43.138Z,33.13
2018-02-17T16:56:11.441Z,30.50
2018-02-17T16:58:39.645Z,35.70
2018-02-17T17:01:07.945Z,30.63
2018-02-17T17:03:36.309Z,33.33
2018-02-17T17:06:04.591Z,35.03
2018-02-17T17:08:32.833Z,39.50
2018-02-17T17:11:01.141Z,34.93
2018-02-17T17:13:29.343Z,35.20
2018-02-17T17:15:57.587Z,33.80
2018-02-17T17:18:25.865Z,31.60
2018-02-17T17:20:54.096Z,31.60
2018-02-17T17:23:22.311Z,36.17
2018-02-17T17:25:50.546Z,34.63
2018-02-17T17:28:19.569Z,33.40
2018-02-17T17:30:47.791Z,32.77
2018-02-17T17:33:16.094Z,34.77
2018-02-17T17:35:44.404Z,32.90
2018-02-17T17:38:12.672Z,30.33
2018-02-17T17:40:40.964Z,36.97
2018-02-17T17:43:09.208Z,29.03
2018-02-17T17:45:37.637Z,28.67
2018-02-17T17:48:05.944Z,28.20
2018-02-17T17:53:12.452Z,30.83
2018-02-17T17:55:40.740Z,24.43
2018-02-17T17:58:08.999Z,25.23
2018-02-17T18:00:37.259Z,24.20
2018-02-17T18:03:06.370Z,28.93
2018-02-17T18:05:34.769Z,22.27
2018-02-17T18:08:03.094Z,26.53
2018-02-17T18:10:31.275Z,23.07
2018-02-17T18:12:59.501Z,24.47
2018-02-17T18:15:27.780Z,25.60
2018-02-17T18:17:56.169Z,24.87
2018-02-17T18:20:24.371Z,24.97
2018-02-17T18:22:52.678Z,24.27
2018-02-17T18:25:21.719Z,24.57
2018-02-17T18:27:50.681Z,25.03
2018-02-17T18:30:19.040Z,25.17
2018-02-17T18:32:48.348Z,21.53
2018-02-17T18:35:16.530Z,19.90
2018-02-17T18:37:45.035Z,21.13
2018-02-17T18:40:13.356Z,25.97
2018-02-17T18:42:42.313Z,22.27
2018-02-17T18:45:10.726Z,32.17
2018-02-17T18:47:38.973Z,32.53
2018-02-17T18:50:07.305Z,32.67
2018-02-17T18:52:36.399Z,31.40
2018-02-17T18:55:05.413Z,25.13
2018-02-17T18:57:33.696Z,29.70
2018-02-17T19:00:02.005Z,28.17
2018-02-17T19:02:30.246Z,28.37
2018-02-17T19:04:58.593Z,26.80
2018-02-17T19:07:27.793Z,27.27
2018-02-17T19:09:56.746Z,30.90
2018-02-17T19:12:24.959Z,30.07
2018-02-17T19:14:53.980Z,25.97
2018-02-17T19:17:22.281Z,29.93
2018-02-17T19:19:50.525Z,31.03
2018-02-17T19:22:18.744Z,30.43
2018-02-17T19:24:47.016Z,32.63
2018-02-17T19:27:15.276Z,32.20
2018-02-17T19:29:43.535Z,33.87
2018-02-17T19:32:11.732Z,34.47
2018-02-17T19:34:40.134Z,30.00
2018-02-17T19:37:08.373Z,34.10
2018-02-17T19:39:36.565Z,32.93
2018-02-17T19:42:04.946Z,31.83
2018-02-17T19:44:33.298Z,34.23
2018-02-17T19:47:01.537Z,41.20
2018-02-17T19:49:30.631Z,47.40
2018-02-17T19:51:58.948Z,40.27
2018-02-17T19:54:27.129Z,40.10
2018-02-17T19:56:55.434Z,36.97
2018-02-17T19:59:23.816Z,33.30
2018-02-17T20:01:52.250Z,32.47
2018-02-17T20:04:21.253Z,29.50
2018-02-17T20:06:49.590Z,22.33
2018-02-17T20:09:17.754Z,27.27
2018-02-17T20:11:46.114Z,27.57
2018-02-17T20:14:14.901Z,25.80
2018-02-17T20:16:43.181Z,28.67
2018-02-17T20:19:11.492Z,32.43
2018-02-17T20:21:40.003Z,25.23
2018-02-17T20:24:09.202Z,35.90
2018-02-17T20:26:38.613Z,31.70
2018-02-17T20:29:07.665Z,35.10
2018-02-17T20:31:36.673Z,33.83
2018-02-17T20:34:05.090Z,29.87
2018-02-17T20:36:33.558Z,34.00
2018-02-17T20:39:02.550Z,31.03
2018-02-17T20:41:30.805Z,32.97
2018-02-17T20:43:59.268Z,37.00
2018-02-17T20:46:27.516Z,30.97
2018-02-17T20:48:55.717Z,34.93
2018-02-17T20:51:24.092Z,33.53
2018-02-17T20:53:52.349Z,34.23
2018-02-17T20:56:20.550Z,34.37
2018-02-17T20:58:49.581Z,30.07
2018-02-17T21:01:17.809Z,36.10
2018-02-17T21:03:46.785Z,33.77
2018-02-17T21:06:15.021Z,29.57
2018-02-17T21:08:43.400Z,30.73
2018-02-17T21:11:11.644Z,32.33
2018-02-17T21:13:39.985Z,33.03
2018-02-17T21:16:08.189Z,31.60
2018-02-17T21:18:37.185Z,37.47
2018-02-17T21:21:05.483Z,35.83
2018-02-17T21:23:33.738Z,32.37
2018-02-17T21:26:01.905Z,46.77
2018-02-17T21:28:30.173Z,54.90
2018-02-17T21:30:58.392Z,44.53
2018-02-17T21:33:26.591Z,33.70
2018-02-17T21:35:54.950Z,46.90
2018-02-17T21:38:23.916Z,42.30
2018-02-17T21:40:52.913Z,37.20
2018-02-17T21:43:21.969Z,35.63
2018-02-17T21:45:50.209Z,36.33
2018-02-17T21:48:18.409Z,39.23
2018-02-17T21:50:46.633Z,40.57
2018-02-17T21:53:15.165Z,42.40
2018-02-17T21:55:43.443Z,42.33
2018-02-17T21:58:12.453Z,39.23
2018-02-17T22:00:40.657Z,38.13
2018-02-17T22:03:08.985Z,45.63
2018-02-17T22:05:37.302Z,40.57
2018-02-17T22:08:06.357Z,42.70
2018-02-17T22:10:34.573Z,42.63
2018-02-17T22:13:03.665Z,44.20
2018-02-17T22:15:31.941Z,44.33
2018-02-17T22:18:00.924Z,47.17
2018-02-17T22:20:29.158Z,42.43
2018-02-17T22:22:57.365Z,50.23
2018-02-17T22:25:25.557Z,47.27
2018-02-17T22:27:53.831Z,47.57
2018-02-17T22:30:22.025Z,43.13
2018-02-17T22:32:50.997Z,49.30
2018-02-17T22:35:19.239Z,49.03
2018-02-17T22:37:47.466Z,44.33
2018-02-17T22:40:16.503Z,39.13
2018-02-17T22:42:44.746Z,50.23
2018-02-17T22:45:13.007Z,45.97
2018-02-17T22:47:41.198Z,41.47
2018-02-17T22:50:09.473Z,46.30
2018-02-17T22:52:37.675Z,46.97
2018-02-17T22:55:05.869Z,43.50
2018-02-17T22:57:34.124Z,54.63
2018-02-17T23:00:02.465Z,58.70
2018-02-17T23:02:31.421Z,54.63
2018-02-17T23:04:59.652Z,54.83
2018-02-17T23:07:27.918Z,51.53
2018-02-17T23:09:56.873Z,59.77
2018-02-17T23:12:28.333Z,71.13
2018-02-17T23:14:56.536Z,94.53
2018-02-17T23:17:25.489Z,82.83
2018-02-17T23:19:53.710Z,71.80
2018-02-17T23:22:21.919Z,67.13
2018-02-17T23:24:50.157Z,53.53
2018-02-17T23:27:18.377Z,46.67
2018-02-17T23:29:46.593Z,53.23
2018-02-17T23:32:15.654Z,50.07
2018-02-17T23:34:43.894Z,50.17
2018-02-17T23:37:12.148Z,45.17
2018-02-17T23:39:40.465Z,48.13
2018-02-17T23:42:08.754Z,47.00
2018-02-17T23:44:36.941Z,47.30
2018-02-17T23:47:05.272Z,45.80
2018-02-17T23:49:33.577Z,49.00
2018-02-17T23:52:01.835Z,52.23
2018-02-17T23:54:30.880Z,49.03
2018-02-17T23:56:59.239Z,50.50
2018-02-17T23:59:27.534Z,46.87
